Independent, Nebraska
Current Conditions -  °F | °C
As of 5:27 AM on Friday 24 Oct 2014 (Local Time) from KODX Reporting Station
Haze Haze  
Wind Chill: 47°   Ceiling: 200
Heat Index: 47°   Visibility: 0.75mi
Dew Point: 46°   Wind: 0mph
Humidity: 97%   Direction: NA
Pressure: 29.92"   Gusts: NA
Location:  41.4844°N, 98.8112°W
Report Text: KODX 241027Z AUTO 00000KT 3/4SM BR VV002 08/08 A2992 RMK AO2 T00830078 $
Loading
Personal Weather Stations






























Interactive Weather Map
Tropical Storm Tracking
New forecast layout! Learn more

10-Day Weather Forecast

Advertisements
Track Severe Weather on mobile